sensor_id;sensor_type;location;lat;lon;timestamp;pressure;altitude;pressure_sealevel;temperature;humidity
78643;BME280;67954;47.618;17.606;2023-04-12T00:00:00;100020.69;;;6.31;78.24
78643;BME280;67954;47.618;17.606;2023-04-12T00:00:33;100015.25;;;6.32;78.08
78643;BME280;67954;47.618;17.606;2023-04-12T00:01:05;100023.97;;;6.23;78.10
78643;BME280;67954;47.618;17.606;2023-04-12T00:01:35;100016.97;;;6.22;78.53
78643;BME280;67954;47.618;17.606;2023-04-12T00:02:07;100012.72;;;6.20;78.02
78643;BME280;67954;47.618;17.606;2023-04-12T00:02:39;100019.78;;;6.21;78.13
78643;BME280;67954;47.618;17.606;2023-04-12T00:03:11;100016.81;;;6.24;78.12
78643;BME280;67954;47.618;17.606;2023-04-12T00:03:42;100023.00;;;6.24;78.53
78643;BME280;67954;47.618;17.606;2023-04-12T00:04:19;100014.03;;;6.25;77.90
78643;BME280;67954;47.618;17.606;2023-04-12T00:04:52;100013.06;;;6.26;78.21
78643;BME280;67954;47.618;17.606;2023-04-12T00:05:24;100008.38;;;6.19;78.83
78643;BME280;67954;47.618;17.606;2023-04-12T00:05:57;100018.31;;;6.17;78.53
78643;BME280;67954;47.618;17.606;2023-04-12T00:06:29;100007.03;;;6.13;78.40
78643;BME280;67954;47.618;17.606;2023-04-12T00:07:02;100016.63;;;6.16;78.58
78643;BME280;67954;47.618;17.606;2023-04-12T00:07:35;100005.94;;;6.16;78.33
78643;BME280;67954;47.618;17.606;2023-04-12T00:08:07;100005.09;;;6.15;78.34
78643;BME280;67954;47.618;17.606;2023-04-12T00:08:40;100000.13;;;6.10;78.24
78643;BME280;67954;47.618;17.606;2023-04-12T00:09:12;100005.34;;;6.12;78.54
78643;BME280;67954;47.618;17.606;2023-04-12T00:09:43;100000.75;;;6.14;78.46
78643;BME280;67954;47.618;17.606;2023-04-12T00:10:13;100002.78;;;6.10;78.82
78643;BME280;67954;47.618;17.606;2023-04-12T00:10:45;99997.22;;;6.14;78.55
78643;BME280;67954;47.618;17.606;2023-04-12T00:11:16;100001.34;;;6.18;78.18
78643;BME280;67954;47.618;17.606;2023-04-12T00:11:47;99999.75;;;6.15;78.21
78643;BME280;67954;47.618;17.606;2023-04-12T00:12:19;100005.94;;;6.16;78.09
78643;BME280;67954;47.618;17.606;2023-04-12T00:12:50;99997.81;;;6.17;78.54
78643;BME280;67954;47.618;17.606;2023-04-12T00:13:20;100004.00;;;6.18;77.97
78643;BME280;67954;47.618;17.606;2023-04-12T00:13:52;100004.25;;;6.15;78.25
78643;BME280;67954;47.618;17.606;2023-04-12T00:14:23;99994.69;;;6.12;78.68
78643;BME280;67954;47.618;17.606;2023-04-12T00:14:54;100001.47;;;6.16;78.57
78643;BME280;67954;47.618;17.606;2023-04-12T00:15:26;100016.84;;;6.13;78.25
78643;BME280;67954;47.618;17.606;2023-04-12T00:15:57;100006.06;;;6.14;78.43
78643;BME280;67954;47.618;17.606;2023-04-12T00:16:28;100008.28;;;6.09;78.71
78643;BME280;67954;47.618;17.606;2023-04-12T00:17:00;100007.44;;;6.08;78.38
78643;BME280;67954;47.618;17.606;2023-04-12T00:17:31;100010.81;;;6.10;78.41
78643;BME280;67954;47.618;17.606;2023-04-12T00:18:03;100002.47;;;6.04;78.78
78643;BME280;67954;47.618;17.606;2023-04-12T00:18:35;100004.88;;;6.07;78.38
78643;BME280;67954;47.618;17.606;2023-04-12T00:19:05;100007.44;;;6.08;78.44
78643;BME280;67954;47.618;17.606;2023-04-12T00:19:36;100004.28;;;6.03;78.53
78643;BME280;67954;47.618;17.606;2023-04-12T00:20:10;100008.03;;;6.01;78.80
78643;BME280;67954;47.618;17.606;2023-04-12T00:20:42;100008.91;;;6.01;78.45
78643;BME280;67954;47.618;17.606;2023-04-12T00:21:14;100001.66;;;5.92;79.05
78643;BME280;67954;47.618;17.606;2023-04-12T00:21:48;100010.50;;;5.93;78.95
78643;BME280;67954;47.618;17.606;2023-04-12T00:22:20;100006.00;;;5.93;79.04
78643;BME280;67954;47.618;17.606;2023-04-12T00:22:51;100008.44;;;5.96;78.69
78643;BME280;67954;47.618;17.606;2023-04-12T00:23:23;100009.28;;;5.97;79.06
78643;BME280;67954;47.618;17.606;2023-04-12T00:23:55;100004.91;;;5.96;78.80
78643;BME280;67954;47.618;17.606;2023-04-12T00:24:26;100000.03;;;6.01;78.07
78643;BME280;67954;47.618;17.606;2023-04-12T00:24:57;100002.94;;;5.98;78.61
78643;BME280;67954;47.618;17.606;2023-04-12T00:25:28;100005.50;;;5.99;78.53
78643;BME280;67954;47.618;17.606;2023-04-12T00:25:59;100006.47;;;5.98;78.22
78643;BME280;67954;47.618;17.606;2023-04-12T00:26:30;100003.09;;;5.96;77.91
78643;BME280;67954;47.618;17.606;2023-04-12T00:27:02;100000.19;;;5.88;78.11
78643;BME280;67954;47.618;17.606;2023-04-12T00:27:34;99999.44;;;5.86;78.29
78643;BME280;67954;47.618;17.606;2023-04-12T00:28:05;100002.63;;;5.91;78.15
78643;BME280;67954;47.618;17.606;2023-04-12T00:28:37;100003.47;;;5.92;77.88
78643;BME280;67954;47.618;17.606;2023-04-12T00:29:08;100007.09;;;5.91;78.20
78643;BME280;67954;47.618;17.606;2023-04-12T00:29:38;100002.09;;;5.86;78.34
78643;BME280;67954;47.618;17.606;2023-04-12T00:30:11;100010.09;;;5.86;78.90
78643;BME280;67954;47.618;17.606;2023-04-12T00:30:41;100006.25;;;5.79;78.44
78643;BME280;67954;47.618;17.606;2023-04-12T00:31:12;100005.28;;;5.80;78.81
78643;BME280;67954;47.618;17.606;2023-04-12T00:31:45;100000.78;;;5.81;79.40
78643;BME280;67954;47.618;17.606;2023-04-12T00:32:15;100004.75;;;5.86;78.68
78643;BME280;67954;47.618;17.606;2023-04-12T00:32:46;100000.56;;;5.84;78.50
78643;BME280;67954;47.618;17.606;2023-04-12T00:33:19;99992.56;;;5.84;79.09
78643;BME280;67954;47.618;17.606;2023-04-12T00:33:50;100003.06;;;5.85;78.78
78643;BME280;67954;47.618;17.606;2023-04-12T00:34:21;99998.59;;;5.86;78.91
78643;BME280;67954;47.618;17.606;2023-04-12T00:34:53;100004.75;;;5.86;78.47
78643;BME280;67954;47.618;17.606;2023-04-12T00:35:23;100009.25;;;5.86;78.44
78643;BME280;67954;47.618;17.606;2023-04-12T00:35:54;99996.06;;;5.84;78.77
78643;BME280;67954;47.618;17.606;2023-04-12T00:36:26;100001.03;;;5.78;78.60
78643;BME280;67954;47.618;17.606;2023-04-12T00:36:57;99995.59;;;5.79;78.66
78643;BME280;67954;47.618;17.606;2023-04-12T00:37:28;99991.22;;;5.78;78.59
78643;BME280;67954;47.618;17.606;2023-04-12T00:37:59;99999.56;;;5.73;78.44
78643;BME280;67954;47.618;17.606;2023-04-12T00:38:32;99998.38;;;5.78;78.52
78643;BME280;67954;47.618;17.606;2023-04-12T00:39:03;100002.72;;;5.79;78.33
78643;BME280;67954;47.618;17.606;2023-04-12T00:39:34;99994.50;;;5.82;78.22
78643;BME280;67954;47.618;17.606;2023-04-12T00:40:07;99998.25;;;5.79;78.20
78643;BME280;67954;47.618;17.606;2023-04-12T00:40:40;99998.25;;;5.79;78.45
78643;BME280;67954;47.618;17.606;2023-04-12T00:41:12;99992.81;;;5.69;78.61
78643;BME280;67954;47.618;17.606;2023-04-12T00:41:42;99994.88;;;5.66;78.60
78643;BME280;67954;47.618;17.606;2023-04-12T00:42:13;99986.03;;;5.65;79.13
78643;BME280;67954;47.618;17.606;2023-04-12T00:42:45;99993.28;;;5.63;78.59
78643;BME280;67954;47.618;17.606;2023-04-12T00:43:16;99995.84;;;5.65;79.03
78643;BME280;67954;47.618;17.606;2023-04-12T00:43:48;99999.13;;;5.68;79.07
78643;BME280;67954;47.618;17.606;2023-04-12T00:44:19;99992.53;;;5.72;78.64
78643;BME280;67954;47.618;17.606;2023-04-12T00:44:50;99996.78;;;5.75;78.88
78643;BME280;67954;47.618;17.606;2023-04-12T00:45:22;99993.66;;;5.70;78.78
78643;BME280;67954;47.618;17.606;2023-04-12T00:45:53;99992.56;;;5.61;78.78
78643;BME280;67954;47.618;17.606;2023-04-12T00:46:27;99995.09;;;5.63;79.03
78643;BME280;67954;47.618;17.606;2023-04-12T00:46:59;99993.91;;;5.67;79.04
78643;BME280;67954;47.618;17.606;2023-04-12T00:47:34;99995.84;;;5.65;78.97
78643;BME280;67954;47.618;17.606;2023-04-12T00:48:05;100004.31;;;5.70;79.16
78643;BME280;67954;47.618;17.606;2023-04-12T00:48:38;100004.44;;;5.68;79.21
78643;BME280;67954;47.618;17.606;2023-04-12T00:49:10;100000.19;;;5.66;78.82
78643;BME280;67954;47.618;17.606;2023-04-12T00:49:41;99993.16;;;5.65;78.89
78643;BME280;67954;47.618;17.606;2023-04-12T00:50:13;99999.22;;;5.67;78.68
78643;BME280;67954;47.618;17.606;2023-04-12T00:50:45;100003.59;;;5.68;79.17
78643;BME280;67954;47.618;17.606;2023-04-12T00:51:16;100004.56;;;5.67;78.63
78643;BME280;67954;47.618;17.606;2023-04-12T00:51:51;99998.75;;;5.62;78.86
78643;BME280;67954;47.618;17.606;2023-04-12T00:52:23;100006.50;;;5.65;79.48
78643;BME280;67954;47.618;17.606;2023-04-12T00:52:54;100007.59;;;5.62;79.53
78643;BME280;67954;47.618;17.606;2023-04-12T00:53:25;100001.63;;;5.59;79.08
78643;BME280;67954;47.618;17.606;2023-04-12T00:53:58;100005.03;;;5.61;78.94
78643;BME280;67954;47.618;17.606;2023-04-12T00:54:29;100006.72;;;5.62;79.32
78643;BME280;67954;47.618;17.606;2023-04-12T00:55:00;100005.66;;;5.64;79.31
78643;BME280;67954;47.618;17.606;2023-04-12T00:55:33;99999.13;;;5.57;78.69
78643;BME280;67954;47.618;17.606;2023-04-12T00:56:06;100005.31;;;5.58;79.11
78643;BME280;67954;47.618;17.606;2023-04-12T00:56:38;100005.44;;;5.56;79.00
78643;BME280;67954;47.618;17.606;2023-04-12T00:57:11;100005.78;;;5.52;79.18
78643;BME280;67954;47.618;17.606;2023-04-12T00:57:41;100004.69;;;5.54;79.06
78643;BME280;67954;47.618;17.606;2023-04-12T00:58:13;100004.31;;;5.59;78.54
78643;BME280;67954;47.618;17.606;2023-04-12T00:58:45;100003.84;;;5.54;79.13
78643;BME280;67954;47.618;17.606;2023-04-12T00:59:16;100002.16;;;5.53;79.45
78643;BME280;67954;47.618;17.606;2023-04-12T00:59:46;100003.84;;;5.54;78.88
78643;BME280;67954;47.618;17.606;2023-04-12T01:00:18;99997.44;;;5.56;79.26
78643;BME280;67954;47.618;17.606;2023-04-12T01:00:50;99997.16;;;5.59;78.63
78643;BME280;67954;47.618;17.606;2023-04-12T01:01:22;99992.56;;;5.61;79.28
78643;BME280;67954;47.618;17.606;2023-04-12T01:01:55;99996.69;;;5.54;79.24
78643;BME280;67954;47.618;17.606;2023-04-12T01:02:26;99996.69;;;5.54;79.08
78643;BME280;67954;47.618;17.606;2023-04-12T01:02:57;99998.00;;;5.60;78.86
78643;BME280;67954;47.618;17.606;2023-04-12T01:03:31;99996.59;;;5.56;79.22
78643;BME280;67954;47.618;17.606;2023-04-12T01:04:04;99995.09;;;5.63;79.49
78643;BME280;67954;47.618;17.606;2023-04-12T01:04:34;99986.75;;;5.67;78.85
78643;BME280;67954;47.618;17.606;2023-04-12T01:05:08;99987.38;;;5.71;79.05
78643;BME280;67954;47.618;17.606;2023-04-12T01:05:51;99996.91;;;5.62;78.98
78643;BME280;67954;47.618;17.606;2023-04-12T01:06:38;99981.16;;;5.59;78.72
78643;BME280;67954;47.618;17.606;2023-04-12T01:07:20;99991.59;;;5.62;78.73
78643;BME280;67954;47.618;17.606;2023-04-12T01:08:01;99981.44;;;5.67;78.54
78643;BME280;67954;47.618;17.606;2023-04-12T01:08:49;99989.41;;;5.67;78.42
78643;BME280;67954;47.618;17.606;2023-04-12T01:09:32;99989.53;;;5.66;78.90
78643;BME280;67954;47.618;17.606;2023-04-12T01:10:15;99985.06;;;5.66;78.58
78643;BME280;67954;47.618;17.606;2023-04-12T01:10:59;99982.28;;;5.68;78.10
78643;BME280;67954;47.618;17.606;2023-04-12T01:11:37;99979.00;;;5.64;78.68
78643;BME280;67954;47.618;17.606;2023-04-12T01:12:23;99981.66;;;5.64;79.18
78643;BME280;67954;47.618;17.606;2023-04-12T01:13:04;99980.56;;;5.67;78.24
78643;BME280;67954;47.618;17.606;2023-04-12T01:13:45;99973.53;;;5.66;78.76
78643;BME280;67954;47.618;17.606;2023-04-12T01:14:27;99977.66;;;5.70;78.25
78643;BME280;67954;47.618;17.606;2023-04-12T01:15:09;99972.06;;;5.73;78.47
78643;BME280;67954;47.618;17.606;2023-04-12T01:15:52;99970.38;;;5.72;78.77
78643;BME280;67954;47.618;17.606;2023-04-12T01:16:28;99975.84;;;5.70;78.74
78643;BME280;67954;47.618;17.606;2023-04-12T01:17:04;99973.88;;;5.72;78.25
78643;BME280;67954;47.618;17.606;2023-04-12T01:17:42;99974.63;;;5.74;78.47
78643;BME280;67954;47.618;17.606;2023-04-12T01:18:18;99969.16;;;5.76;78.00
78643;BME280;67954;47.618;17.606;2023-04-12T01:18:55;99970.84;;;5.77;78.16
78643;BME280;67954;47.618;17.606;2023-04-12T01:19:50;99970.38;;;5.72;78.34
78643;BME280;67954;47.618;17.606;2023-04-12T01:20:30;99965.66;;;5.75;78.14
78643;BME280;67954;47.618;17.606;2023-04-12T01:21:07;99970.75;;;5.79;77.42
78643;BME280;67954;47.618;17.606;2023-04-12T01:21:51;99975.47;;;5.75;78.07
78643;BME280;67954;47.618;17.606;2023-04-12T01:22:35;99969.28;;;5.74;77.73
78643;BME280;67954;47.618;17.606;2023-04-12T01:23:19;99963.38;;;5.71;77.53
78643;BME280;67954;47.618;17.606;2023-04-12T01:24:05;99967.59;;;5.73;77.36
78643;BME280;67954;47.618;17.606;2023-04-12T01:24:53;99967.00;;;5.70;78.15
78643;BME280;67954;47.618;17.606;2023-04-12T01:25:36;99972.19;;;5.71;77.92
78643;BME280;67954;47.618;17.606;2023-04-12T01:26:25;99973.19;;;5.70;77.89
78643;BME280;67954;47.618;17.606;2023-04-12T01:26:57;99970.66;;;5.69;78.20
78643;BME280;67954;47.618;17.606;2023-04-12T01:27:38;99973.44;;;5.67;78.47
78643;BME280;67954;47.618;17.606;2023-04-12T01:28:15;99964.81;;;5.64;77.86
78643;BME280;67954;47.618;17.606;2023-04-12T01:28:51;99967.38;;;5.65;78.37
78643;BME280;67954;47.618;17.606;2023-04-12T01:29:24;99976.44;;;5.63;78.43
78643;BME280;67954;47.618;17.606;2023-04-12T01:30:00;99973.19;;;5.59;78.19
78643;BME280;67954;47.618;17.606;2023-04-12T01:30:32;99979.34;;;5.60;78.49
78643;BME280;67954;47.618;17.606;2023-04-12T01:31:06;99967.72;;;5.61;78.11
78643;BME280;67954;47.618;17.606;2023-04-12T01:31:40;99968.00;;;5.58;78.39
78643;BME280;67954;47.618;17.606;2023-04-12T01:32:12;99971.88;;;5.54;78.21
78643;BME280;67954;47.618;17.606;2023-04-12T01:32:45;99971.13;;;5.52;78.53
78643;BME280;67954;47.618;17.606;2023-04-12T01:33:18;99971.25;;;5.50;78.20
78643;BME280;67954;47.618;17.606;2023-04-12T01:33:54;99968.72;;;5.49;78.06
78643;BME280;67954;47.618;17.606;2023-04-12T01:34:29;99971.50;;;5.47;78.07
78643;BME280;67954;47.618;17.606;2023-04-12T01:35:02;99961.44;;;5.51;78.21
78643;BME280;67954;47.618;17.606;2023-04-12T01:35:36;99972.47;;;5.46;78.43
78643;BME280;67954;47.618;17.606;2023-04-12T01:36:11;99964.97;;;5.40;78.44
78643;BME280;67954;47.618;17.606;2023-04-12T01:36:46;99970.19;;;5.42;78.45
78643;BME280;67954;47.618;17.606;2023-04-12T01:37:20;99964.25;;;5.38;78.56
78643;BME280;67954;47.618;17.606;2023-04-12T01:37:52;99968.84;;;5.36;78.16
78643;BME280;67954;47.618;17.606;2023-04-12T01:38:23;99966.66;;;5.41;78.21
78643;BME280;67954;47.618;17.606;2023-04-12T01:38:57;99963.28;;;5.39;78.04
78643;BME280;67954;47.618;17.606;2023-04-12T01:39:28;99962.09;;;5.32;78.30
78643;BME280;67954;47.618;17.606;2023-04-12T01:40:02;99962.91;;;5.32;78.58
78643;BME280;67954;47.618;17.606;2023-04-12T01:40:35;99966.56;;;5.31;78.10
78643;BME280;67954;47.618;17.606;2023-04-12T01:41:09;99961.34;;;5.30;78.62
78643;BME280;67954;47.618;17.606;2023-04-12T01:41:41;99961.09;;;5.33;78.17
78643;BME280;67954;47.618;17.606;2023-04-12T01:42:17;99957.56;;;5.32;78.75
78643;BME280;67954;47.618;17.606;2023-04-12T01:42:51;99955.28;;;5.28;78.54
78643;BME280;67954;47.618;17.606;2023-04-12T01:43:23;99956.16;;;5.28;78.46
78643;BME280;67954;47.618;17.606;2023-04-12T01:43:54;99955.19;;;5.29;78.79
78643;BME280;67954;47.618;17.606;2023-04-12T01:44:26;99959.78;;;5.27;78.71
78643;BME280;67954;47.618;17.606;2023-04-12T01:44:57;99963.75;;;5.22;78.49
78643;BME280;67954;47.618;17.606;2023-04-12T01:45:28;99958.91;;;5.27;78.98
78643;BME280;67954;47.618;17.606;2023-04-12T01:45:59;99953.09;;;5.22;78.76
78643;BME280;67954;47.618;17.606;2023-04-12T01:46:30;99953.34;;;5.08;79.43
78643;BME280;67954;47.618;17.606;2023-04-12T01:47:03;99948.97;;;5.07;79.86
78643;BME280;67954;47.618;17.606;2023-04-12T01:47:34;99952.75;;;5.04;79.99
78643;BME280;67954;47.618;17.606;2023-04-12T01:48:09;99953.84;;;5.01;79.30
78643;BME280;67954;47.618;17.606;2023-04-12T01:48:47;99951.78;;;5.05;79.77
78643;BME280;67954;47.618;17.606;2023-04-12T01:49:22;99952.00;;;5.02;79.49
78643;BME280;67954;47.618;17.606;2023-04-12T01:50:06;99949.13;;;5.05;79.37
78643;BME280;67954;47.618;17.606;2023-04-12T01:50:50;99950.22;;;5.02;80.06
78643;BME280;67954;47.618;17.606;2023-04-12T01:51:38;99952.38;;;4.97;79.84
78643;BME280;67954;47.618;17.606;2023-04-12T01:52:18;99950.31;;;5.01;79.92
78643;BME280;67954;47.618;17.606;2023-04-12T01:52:56;99948.28;;;5.05;80.12
78643;BME280;67954;47.618;17.606;2023-04-12T01:53:38;99951.06;;;5.03;79.89
78643;BME280;67954;47.618;17.606;2023-04-12T01:54:20;99956.50;;;5.01;79.74
78643;BME280;67954;47.618;17.606;2023-04-12T01:54:56;99951.41;;;5.10;79.90
78643;BME280;67954;47.618;17.606;2023-04-12T01:55:29;99954.19;;;5.08;80.02
78643;BME280;67954;47.618;17.606;2023-04-12T01:56:06;99957.81;;;5.07;79.33
78643;BME280;67954;47.618;17.606;2023-04-12T01:56:40;99952.97;;;5.12;79.64
78643;BME280;67954;47.618;17.606;2023-04-12T01:57:14;99949.13;;;5.16;79.46
78643;BME280;67954;47.618;17.606;2023-04-12T01:57:47;99949.97;;;5.17;78.99
78643;BME280;67954;47.618;17.606;2023-04-12T01:58:21;99958.06;;;5.15;79.17
78643;BME280;67954;47.618;17.606;2023-04-12T01:58:54;99954.56;;;5.15;78.85
78643;BME280;67954;47.618;17.606;2023-04-12T01:59:30;99957.34;;;5.13;78.52
78643;BME280;67954;47.618;17.606;2023-04-12T02:00:02;99956.72;;;5.10;79.21
78643;BME280;67954;47.618;17.606;2023-04-12T02:00:37;99953.47;;;5.06;79.22
78643;BME280;67954;47.618;17.606;2023-04-12T02:01:12;99954.91;;;5.10;79.02
78643;BME280;67954;47.618;17.606;2023-04-12T02:01:45;99954.69;;;5.13;78.73
78643;BME280;67954;47.618;17.606;2023-04-12T02:02:16;99946.69;;;5.13;78.97
78643;BME280;67954;47.618;17.606;2023-04-12T02:02:49;99950.09;;;5.15;78.97
78643;BME280;67954;47.618;17.606;2023-04-12T02:03:22;99946.56;;;5.15;79.02
78643;BME280;67954;47.618;17.606;2023-04-12T02:03:54;99957.00;;;5.18;78.42
78643;BME280;67954;47.618;17.606;2023-04-12T02:04:29;99945.09;;;5.22;78.52
78643;BME280;67954;47.618;17.606;2023-04-12T02:05:02;99943.19;;;5.13;79.38
78643;BME280;67954;47.618;17.606;2023-04-12T02:05:34;99954.69;;;5.13;79.50
78643;BME280;67954;47.618;17.606;2023-04-12T02:06:07;99958.81;;;5.17;78.56
78643;BME280;67954;47.618;17.606;2023-04-12T02:06:40;99950.56;;;5.20;78.40
78643;BME280;67954;47.618;17.606;2023-04-12T02:07:14;99951.28;;;5.22;79.01
78643;BME280;67954;47.618;17.606;2023-04-12T02:07:49;99947.78;;;5.22;78.81
78643;BME280;67954;47.618;17.606;2023-04-12T02:08:20;99951.91;;;5.26;78.98
78643;BME280;67954;47.618;17.606;2023-04-12T02:08:56;99953.72;;;5.25;78.39
78643;BME280;67954;47.618;17.606;2023-04-12T02:09:28;99955.28;;;5.28;78.95
78643;BME280;67954;47.618;17.606;2023-04-12T02:09:59;99957.00;;;5.29;78.22
78643;BME280;67954;47.618;17.606;2023-04-12T02:10:31;99957.72;;;5.31;78.83
78643;BME280;67954;47.618;17.606;2023-04-12T02:11:07;99956.03;;;5.30;78.85
78643;BME280;67954;47.618;17.606;2023-04-12T02:11:38;99953.09;;;5.33;78.79
78643;BME280;67954;47.618;17.606;2023-04-12T02:12:09;99954.78;;;5.34;78.80
78643;BME280;67954;47.618;17.606;2023-04-12T02:12:40;99953.47;;;5.28;78.88
78643;BME280;67954;47.618;17.606;2023-04-12T02:13:11;99954.31;;;5.29;78.59
78643;BME280;67954;47.618;17.606;2023-04-12T02:13:43;99956.88;;;5.30;78.79
78643;BME280;67954;47.618;17.606;2023-04-12T02:14:15;99958.56;;;5.31;78.20
78643;BME280;67954;47.618;17.606;2023-04-12T02:14:46;99964.00;;;5.30;78.93
78643;BME280;67954;47.618;17.606;2023-04-12T02:15:21;99964.75;;;5.32;78.41
78643;BME280;67954;47.618;17.606;2023-04-12T02:15:53;99963.16;;;5.29;78.92
78643;BME280;67954;47.618;17.606;2023-04-12T02:16:24;99957.72;;;5.31;78.60
78643;BME280;67954;47.618;17.606;2023-04-12T02:16:58;99956.59;;;5.33;78.01
78643;BME280;67954;47.618;17.606;2023-04-12T02:17:31;99954.09;;;5.32;78.31
78643;BME280;67954;47.618;17.606;2023-04-12T02:18:02;99959.28;;;5.33;78.08
78643;BME280;67954;47.618;17.606;2023-04-12T02:18:34;99960.00;;;5.35;78.44
78643;BME280;67954;47.618;17.606;2023-04-12T02:19:05;99955.41;;;5.37;77.98
78643;BME280;67954;47.618;17.606;2023-04-12T02:19:38;99961.56;;;5.38;77.99
78643;BME280;67954;47.618;17.606;2023-04-12T02:20:09;99959.66;;;5.40;77.66
78643;BME280;67954;47.618;17.606;2023-04-12T02:20:41;99956.13;;;5.39;78.22
78643;BME280;67954;47.618;17.606;2023-04-12T02:21:13;99958.06;;;5.37;77.68
78643;BME280;67954;47.618;17.606;2023-04-12T02:21:44;99957.22;;;5.37;77.94
78643;BME280;67954;47.618;17.606;2023-04-12T02:22:16;99960.72;;;5.37;78.50
78643;BME280;67954;47.618;17.606;2023-04-12T02:22:47;99950.91;;;5.38;77.79
78643;BME280;67954;47.618;17.606;2023-04-12T02:23:18;99956.88;;;5.42;77.97
78643;BME280;67954;47.618;17.606;2023-04-12T02:23:49;99956.13;;;5.39;78.27
78643;BME280;67954;47.618;17.606;2023-04-12T02:24:20;99961.94;;;5.45;77.83
78643;BME280;67954;47.618;17.606;2023-04-12T02:24:51;99952.97;;;5.46;77.99
78643;BME280;67954;47.618;17.606;2023-04-12T02:25:22;99950.44;;;5.44;78.29
78643;BME280;67954;47.618;17.606;2023-04-12T02:25:54;99957.31;;;5.47;78.05
78643;BME280;67954;47.618;17.606;2023-04-12T02:26:25;99951.75;;;5.50;77.52
78643;BME280;67954;47.618;17.606;2023-04-12T02:26:57;99951.16;;;5.46;77.77
78643;BME280;67954;47.618;17.606;2023-04-12T02:27:28;99954.66;;;5.47;78.17
78643;BME280;67954;47.618;17.606;2023-04-12T02:28:00;99953.81;;;5.46;77.75
78643;BME280;67954;47.618;17.606;2023-04-12T02:28:31;99954.19;;;5.42;77.88
78643;BME280;67954;47.618;17.606;2023-04-12T02:29:05;99953.22;;;5.43;78.01
78643;BME280;67954;47.618;17.606;2023-04-12T02:29:38;99957.81;;;5.41;77.91
78643;BME280;67954;47.618;17.606;2023-04-12T02:30:09;99957.59;;;5.44;78.24
78643;BME280;67954;47.618;17.606;2023-04-12T02:30:40;99952.97;;;5.46;77.41
78643;BME280;67954;47.618;17.606;2023-04-12T02:31:12;99947.06;;;5.42;77.55
78643;BME280;67954;47.618;17.606;2023-04-12T02:31:44;99952.63;;;5.39;77.53
78643;BME280;67954;47.618;17.606;2023-04-12T02:32:15;99954.19;;;5.42;77.77
78643;BME280;67954;47.618;17.606;2023-04-12T02:32:47;99957.59;;;5.44;77.19
78643;BME280;67954;47.618;17.606;2023-04-12T02:33:19;99957.09;;;5.38;77.65
78643;BME280;67954;47.618;17.606;2023-04-12T02:33:51;99952.75;;;5.37;77.47
78643;BME280;67954;47.618;17.606;2023-04-12T02:34:22;99953.94;;;5.33;77.70
78643;BME280;67954;47.618;17.606;2023-04-12T02:34:53;99955.75;;;5.33;77.85
78643;BME280;67954;47.618;17.606;2023-04-12T02:35:24;99955.41;;;5.26;77.24
78643;BME280;67954;47.618;17.606;2023-04-12T02:35:56;99955.28;;;5.28;77.13
78643;BME280;67954;47.618;17.606;2023-04-12T02:36:27;99949.13;;;5.27;77.53
78643;BME280;67954;47.618;17.606;2023-04-12T02:36:58;99951.78;;;5.27;77.57
78643;BME280;67954;47.618;17.606;2023-04-12T02:37:29;99954.91;;;5.21;77.94
78643;BME280;67954;47.618;17.606;2023-04-12T02:38:01;99951.78;;;5.16;77.98
78643;BME280;67954;47.618;17.606;2023-04-12T02:38:33;99952.88;;;5.14;78.28
78643;BME280;67954;47.618;17.606;2023-04-12T02:39:04;99948.00;;;5.08;78.33
78643;BME280;67954;47.618;17.606;2023-04-12T02:39:35;99948.50;;;5.01;78.37
78643;BME280;67954;47.618;17.606;2023-04-12T02:40:07;99945.72;;;5.03;78.20
78643;BME280;67954;47.618;17.606;2023-04-12T02:40:40;99950.66;;;5.08;78.64
78643;BME280;67954;47.618;17.606;2023-04-12T02:41:16;99947.88;;;4.98;78.64
78643;BME280;67954;47.618;17.606;2023-04-12T02:41:46;99957.91;;;4.94;78.46
78643;BME280;67954;47.618;17.606;2023-04-12T02:42:18;99947.66;;;4.90;79.06
78643;BME280;67954;47.618;17.606;2023-04-12T02:42:49;99952.34;;;4.86;79.14
78643;BME280;67954;47.618;17.606;2023-04-12T02:43:20;99955.63;;;4.90;79.23
78643;BME280;67954;47.618;17.606;2023-04-12T02:43:50;99953.81;;;4.90;79.08
78643;BME280;67954;47.618;17.606;2023-04-12T02:44:24;99951.84;;;4.81;79.19
78643;BME280;67954;47.618;17.606;2023-04-12T02:44:54;99952.78;;;4.69;79.60
78643;BME280;67954;47.618;17.606;2023-04-12T02:45:25;99953.41;;;4.73;79.70
78643;BME280;67954;47.618;17.606;2023-04-12T02:45:56;99949.56;;;4.77;79.20
78643;BME280;67954;47.618;17.606;2023-04-12T02:46:28;99953.41;;;4.73;79.56
78643;BME280;67954;47.618;17.606;2023-04-12T02:46:59;99961.63;;;4.70;79.61
78643;BME280;67954;47.618;17.606;2023-04-12T02:47:30;99956.19;;;4.71;79.09
78643;BME280;67954;47.618;17.606;2023-04-12T02:48:00;99950.75;;;4.73;79.49
78643;BME280;67954;47.618;17.606;2023-04-12T02:48:34;99960.09;;;4.78;79.54
78643;BME280;67954;47.618;17.606;2023-04-12T02:49:05;99961.19;;;4.76;79.21
78643;BME280;67954;47.618;17.606;2023-04-12T02:49:35;99955.44;;;4.58;79.60
78643;BME280;67954;47.618;17.606;2023-04-12T02:50:07;99951.28;;;4.43;80.21
78643;BME280;67954;47.618;17.606;2023-04-12T02:50:38;99951.16;;;4.44;80.46
78643;BME280;67954;47.618;17.606;2023-04-12T02:51:09;99958.47;;;4.53;80.13
78643;BME280;67954;47.618;17.606;2023-04-12T02:51:41;99961.28;;;4.63;80.25
78643;BME280;67954;47.618;17.606;2023-04-12T02:52:11;99962.75;;;4.67;80.17
78643;BME280;67954;47.618;17.606;2023-04-12T02:52:42;99954.59;;;4.68;79.63
78643;BME280;67954;47.618;17.606;2023-04-12T02:53:14;99961.75;;;4.68;79.32
78643;BME280;67954;47.618;17.606;2023-04-12T02:53:45;99960.66;;;4.59;79.67
78643;BME280;67954;47.618;17.606;2023-04-12T02:54:16;99958.72;;;4.61;79.55
78643;BME280;67954;47.618;17.606;2023-04-12T02:54:48;99963.69;;;4.66;79.62
78643;BME280;67954;47.618;17.606;2023-04-12T02:55:19;99954.75;;;4.67;79.92
78643;BME280;67954;47.618;17.606;2023-04-12T02:55:51;99960.91;;;4.67;79.46